Time,TemperatureF,DewpointF,PressureIn,WindDirection,WindDirectionDegrees,WindSpeedMPH,WindSpeedGustMPH,Humidity,HourlyPrecipIn,Conditions,Clouds,dailyrainin,SoftwareType,DateUTC
2013-02-22 00:02:00,36.5,27.6,30.38,NNE,23,3.0,-999.0,70,0.00,,,0.00,Wunderground v.1.15,2013-02-22 05:02:00,
2013-02-22 00:07:00,36.5,27.6,30.38,NNE,23,3.0,-999.0,70,0.00,,,0.00,Wunderground v.1.15,2013-02-22 05:07:00,
2013-02-22 00:12:00,36.5,27.6,30.38,NNE,23,3.0,-999.0,70,0.00,,,0.00,Wunderground v.1.15,2013-02-22 05:12:00,
2013-02-22 00:17:00,37.1,27.5,30.37,NE,45,2.0,-999.0,68,0.00,,,0.00,Wunderground v.1.15,2013-02-22 05:17:00,
2013-02-22 00:22:00,37.1,27.5,30.37,NE,45,2.0,-999.0,68,0.00,,,0.00,Wunderground v.1.15,2013-02-22 05:22:00,
2013-02-22 00:27:00,38.0,27.3,30.37,NE,45,2.0,-999.0,65,0.00,,,0.00,Wunderground v.1.15,2013-02-22 05:27:00,
2013-02-22 00:32:00,38.0,27.3,30.37,NE,45,2.0,-999.0,65,0.00,,,0.00,Wunderground v.1.15,2013-02-22 05:32:00,
2013-02-22 00:37:00,37.8,25.9,30.36,NNW,338,4.0,-999.0,62,0.00,,,0.00,Wunderground v.1.15,2013-02-22 05:37:00,
2013-02-22 00:42:00,37.8,25.9,30.36,NNW,338,4.0,-999.0,62,0.00,,,0.00,Wunderground v.1.15,2013-02-22 05:42:00,
2013-02-22 00:47:00,38.5,26.6,30.37,NE,45,3.0,-999.0,62,0.00,,,0.00,Wunderground v.1.15,2013-02-22 05:47:00,
2013-02-22 00:52:00,38.5,26.6,30.37,NE,45,3.0,-999.0,62,0.00,,,0.00,Wunderground v.1.15,2013-02-22 05:52:00,
2013-02-22 00:57:00,38.0,26.5,30.37,NE,45,3.0,-999.0,63,0.00,,,0.00,Wunderground v.1.15,2013-02-22 05:57:00,
2013-02-22 01:02:00,38.0,26.5,30.37,NE,45,3.0,-999.0,63,0.00,,,0.00,Wunderground v.1.15,2013-02-22 06:02:00,
2013-02-22 01:07:00,37.5,26.0,30.38,NNE,23,4.0,-999.0,63,0.00,,,0.00,Wunderground v.1.15,2013-02-22 06:07:00,
2013-02-22 01:12:00,37.5,26.0,30.38,NNE,23,4.0,-999.0,63,0.00,,,0.00,Wunderground v.1.15,2013-02-22 06:12:00,
2013-02-22 01:17:00,37.5,25.7,30.38,NNW,338,3.0,-999.0,62,0.00,,,0.00,Wunderground v.1.15,2013-02-22 06:17:00,
2013-02-22 01:22:00,37.5,25.7,30.38,NNW,338,3.0,-999.0,62,0.00,,,0.00,Wunderground v.1.15,2013-02-22 06:22:00,
2013-02-22 01:27:00,37.0,25.6,30.38,NNW,338,3.0,-999.0,63,0.00,,,0.00,Wunderground v.1.15,2013-02-22 06:27:00,
2013-02-22 01:32:00,37.0,25.6,30.38,NNW,338,3.0,-999.0,63,0.00,,,0.00,Wunderground v.1.15,2013-02-22 06:32:00,
2013-02-22 01:37:00,36.8,25.8,30.38,NE,45,3.0,-999.0,64,0.00,,,0.00,Wunderground v.1.15,2013-02-22 06:37:00,
2013-02-22 01:42:00,36.8,25.8,30.38,NE,45,3.0,-999.0,64,0.00,,,0.00,Wunderground v.1.15,2013-02-22 06:42:00,
2013-02-22 01:47:00,37.2,25.8,30.38,NNW,338,3.0,-999.0,63,0.00,,,0.00,Wunderground v.1.15,2013-02-22 06:47:00,
2013-02-22 01:52:00,37.2,25.8,30.38,NNW,338,3.0,-999.0,63,0.00,,,0.00,Wunderground v.1.15,2013-02-22 06:52:00,
2013-02-22 01:57:00,37.4,25.9,30.38,NE,45,3.0,-999.0,63,0.00,,,0.00,Wunderground v.1.15,2013-02-22 06:57:00,
2013-02-22 02:02:00,37.4,25.9,30.38,NE,45,3.0,-999.0,63,0.00,,,0.00,Wunderground v.1.15,2013-02-22 07:02:00,
2013-02-22 02:07:00,37.1,26.4,30.38,NE,45,3.0,-999.0,65,0.00,,,0.00,Wunderground v.1.15,2013-02-22 07:07:00,
2013-02-22 02:12:00,37.1,26.4,30.38,NE,45,3.0,-999.0,65,0.00,,,0.00,Wunderground v.1.15,2013-02-22 07:12:00,
2013-02-22 02:17:00,36.7,25.7,30.38,NNE,23,3.0,-999.0,64,0.00,,,0.00,Wunderground v.1.15,2013-02-22 07:17:00,
2013-02-22 02:22:00,36.7,25.7,30.38,NNE,23,3.0,-999.0,64,0.00,,,0.00,Wunderground v.1.15,2013-02-22 07:22:00,
2013-02-22 02:27:00,36.9,25.9,30.38,NNE,23,3.0,-999.0,64,0.00,,,0.00,Wunderground v.1.15,2013-02-22 07:27:00,
2013-02-22 02:32:00,36.9,25.9,30.38,NNE,23,3.0,-999.0,64,0.00,,,0.00,Wunderground v.1.15,2013-02-22 07:32:00,
2013-02-22 02:37:00,36.8,25.8,30.37,NNE,23,3.0,-999.0,64,0.00,,,0.00,Wunderground v.1.15,2013-02-22 07:37:00,
2013-02-22 02:42:00,36.8,25.8,30.37,NNE,23,3.0,-999.0,64,0.00,,,0.00,Wunderground v.1.15,2013-02-22 07:42:00,
2013-02-22 02:47:00,36.9,26.6,30.37,NNE,23,3.0,-999.0,66,0.00,,,0.00,Wunderground v.1.15,2013-02-22 07:47:00,
2013-02-22 02:52:00,36.9,26.6,30.37,NNE,23,3.0,-999.0,66,0.00,,,0.00,Wunderground v.1.15,2013-02-22 07:52:00,
2013-02-22 02:57:00,36.8,26.1,30.38,NNW,338,2.0,-999.0,65,0.00,,,0.00,Wunderground v.1.15,2013-02-22 07:57:00,
2013-02-22 03:02:00,36.8,26.1,30.38,NNW,338,2.0,-999.0,65,0.00,,,0.00,Wunderground v.1.15,2013-02-22 08:02:00,
2013-02-22 03:07:00,36.5,26.2,30.38,NNW,338,2.0,-999.0,66,0.00,,,0.00,Wunderground v.1.15,2013-02-22 08:07:00,
2013-02-22 03:12:00,36.5,26.2,30.38,NNW,338,2.0,-999.0,66,0.00,,,0.00,Wunderground v.1.15,2013-02-22 08:12:00,
2013-02-22 03:17:00,36.3,26.0,30.38,NNW,338,2.0,-999.0,66,0.00,,,0.00,Wunderground v.1.15,2013-02-22 08:17:00,
2013-02-22 03:22:00,36.3,26.0,30.38,NNW,338,2.0,-999.0,66,0.00,,,0.00,Wunderground v.1.15,2013-02-22 08:22:00,
2013-02-22 03:27:00,36.1,26.6,30.38,NNE,23,2.0,-999.0,68,0.00,,,0.00,Wunderground v.1.15,2013-02-22 08:27:00,
2013-02-22 03:32:00,36.1,26.6,30.38,NNE,23,2.0,-999.0,68,0.00,,,0.00,Wunderground v.1.15,2013-02-22 08:32:00,
2013-02-22 03:37:00,35.9,26.7,30.38,NE,45,2.0,-999.0,69,0.00,,,0.00,Wunderground v.1.15,2013-02-22 08:37:00,
2013-02-22 03:42:00,35.9,26.7,30.38,NE,45,2.0,-999.0,69,0.00,,,0.00,Wunderground v.1.15,2013-02-22 08:42:00,
2013-02-22 03:47:00,36.0,26.8,30.38,NNE,23,2.0,-999.0,69,0.00,,,0.00,Wunderground v.1.15,2013-02-22 08:47:00,
2013-02-22 03:52:00,36.0,26.8,30.38,NNE,23,2.0,-999.0,69,0.00,,,0.00,Wunderground v.1.15,2013-02-22 08:52:00,
2013-02-22 03:57:00,36.0,27.2,30.39,NNE,23,2.0,-999.0,70,0.00,,,0.00,Wunderground v.1.15,2013-02-22 08:57:00,
2013-02-22 04:02:00,36.0,27.2,30.39,NNE,23,2.0,-999.0,70,0.00,,,0.00,Wunderground v.1.15,2013-02-22 09:02:00,
2013-02-22 04:07:00,35.9,26.7,30.38,NNE,23,2.0,-999.0,69,0.00,,,0.00,Wunderground v.1.15,2013-02-22 09:07:00,
2013-02-22 04:12:00,35.9,26.7,30.38,NNE,23,2.0,-999.0,69,0.00,,,0.00,Wunderground v.1.15,2013-02-22 09:12:00,
2013-02-22 04:17:00,35.7,26.9,30.38,NE,45,1.0,-999.0,70,0.00,,,0.00,Wunderground v.1.15,2013-02-22 09:17:00,
2013-02-22 04:22:00,35.7,26.9,30.38,NE,45,1.0,-999.0,70,0.00,,,0.00,Wunderground v.1.15,2013-02-22 09:22:00,
2013-02-22 04:27:00,35.6,26.8,30.39,NNW,338,1.0,-999.0,70,0.00,,,0.00,Wunderground v.1.15,2013-02-22 09:27:00,
2013-02-22 04:32:00,35.6,26.8,30.39,NNW,338,1.0,-999.0,70,0.00,,,0.00,Wunderground v.1.15,2013-02-22 09:32:00,
2013-02-22 04:37:00,35.5,27.0,30.38,NE,45,1.0,-999.0,71,0.00,,,0.00,Wunderground v.1.15,2013-02-22 09:37:00,
2013-02-22 04:42:00,35.5,27.0,30.38,NE,45,1.0,-999.0,71,0.00,,,0.00,Wunderground v.1.15,2013-02-22 09:42:00,
2013-02-22 04:47:00,35.4,26.9,30.37,NNE,23,1.0,-999.0,71,0.00,,,0.00,Wunderground v.1.15,2013-02-22 09:47:00,
2013-02-22 04:52:00,35.4,26.9,30.37,NNE,23,1.0,-999.0,71,0.00,,,0.00,Wunderground v.1.15,2013-02-22 09:52:00,
2013-02-22 04:57:00,35.3,26.5,30.37,NNE,23,2.0,-999.0,70,0.00,,,0.00,Wunderground v.1.15,2013-02-22 09:57:00,
2013-02-22 05:02:00,35.3,26.5,30.37,NNE,23,2.0,-999.0,70,0.00,,,0.00,Wunderground v.1.15,2013-02-22 10:02:00,
2013-02-22 05:07:00,35.2,26.7,30.37,NE,45,1.0,-999.0,71,0.00,,,0.00,Wunderground v.1.15,2013-02-22 10:07:00,
2013-02-22 05:12:00,35.2,26.7,30.37,NE,45,1.0,-999.0,71,0.00,,,0.00,Wunderground v.1.15,2013-02-22 10:12:00,
2013-02-22 05:17:00,35.1,26.6,30.37,NNE,23,0.0,-999.0,71,0.00,,,0.00,Wunderground v.1.15,2013-02-22 10:17:00,
2013-02-22 05:22:00,35.1,26.6,30.37,NNE,23,0.0,-999.0,71,0.00,,,0.00,Wunderground v.1.15,2013-02-22 10:22:00,
2013-02-22 05:27:00,35.0,26.9,30.37,NE,45,0.0,-999.0,72,0.00,,,0.00,Wunderground v.1.15,2013-02-22 10:27:00,
2013-02-22 05:32:00,35.0,26.9,30.37,NE,45,0.0,-999.0,72,0.00,,,0.00,Wunderground v.1.15,2013-02-22 10:32:00,
2013-02-22 05:37:00,34.9,26.8,30.36,NE,45,1.0,-999.0,72,0.00,,,0.00,Wunderground v.1.15,2013-02-22 10:37:00,
2013-02-22 05:42:00,34.9,26.8,30.36,NE,45,1.0,-999.0,72,0.00,,,0.00,Wunderground v.1.15,2013-02-22 10:42:00,
2013-02-22 05:47:00,34.8,26.7,30.37,NE,45,1.0,-999.0,72,0.00,,,0.00,Wunderground v.1.15,2013-02-22 10:47:00,
2013-02-22 05:52:00,34.8,26.7,30.37,NE,45,1.0,-999.0,72,0.00,,,0.00,Wunderground v.1.15,2013-02-22 10:52:00,
2013-02-22 05:57:00,34.8,26.7,30.39,NNE,23,0.0,-999.0,72,0.00,,,0.00,Wunderground v.1.15,2013-02-22 10:57:00,
2013-02-22 06:02:00,34.8,26.7,30.39,NNE,23,0.0,-999.0,72,0.00,,,0.00,Wunderground v.1.15,2013-02-22 11:02:00,
2013-02-22 06:07:00,34.7,26.6,30.40,NNW,338,0.0,-999.0,72,0.00,,,0.00,Wunderground v.1.15,2013-02-22 11:07:00,
2013-02-22 06:12:00,34.7,26.6,30.40,NNW,338,0.0,-999.0,72,0.00,,,0.00,Wunderground v.1.15,2013-02-22 11:12:00,
2013-02-22 06:17:00,34.7,26.6,30.41,N/A,-737280,0.0,-999.0,72,0.00,,,0.00,Wunderground v.1.15,2013-02-22 11:17:00,
2013-02-22 06:22:00,34.7,26.6,30.41,N/A,-737280,0.0,-999.0,72,0.00,,,0.00,Wunderground v.1.15,2013-02-22 11:22:00,
2013-02-22 06:27:00,34.5,26.7,30.39,N/A,-737280,0.0,-999.0,73,0.00,,,0.00,Wunderground v.1.15,2013-02-22 11:27:00,
2013-02-22 06:32:00,34.5,26.7,30.39,N/A,-737280,0.0,-999.0,73,0.00,,,0.00,Wunderground v.1.15,2013-02-22 11:32:00,
2013-02-22 06:37:00,34.4,26.6,30.38,NE,45,0.0,-999.0,73,0.00,,,0.00,Wunderground v.1.15,2013-02-22 11:37:00,
2013-02-22 06:42:00,34.4,26.6,30.38,NE,45,0.0,-999.0,73,0.00,,,0.00,Wunderground v.1.15,2013-02-22 11:42:00,
2013-02-22 06:47:00,34.4,26.6,30.38,ENE,68,0.0,-999.0,73,0.00,,,0.00,Wunderground v.1.15,2013-02-22 11:47:00,
2013-02-22 06:52:00,34.4,26.6,30.38,ENE,68,0.0,-999.0,73,0.00,,,0.00,Wunderground v.1.15,2013-02-22 11:52:00,
2013-02-22 06:57:00,34.4,27.0,30.39,East,90,0.0,-999.0,74,0.00,,,0.00,Wunderground v.1.15,2013-02-22 11:57:00,
2013-02-22 07:02:00,34.4,27.0,30.39,East,90,0.0,-999.0,74,0.00,,,0.00,Wunderground v.1.15,2013-02-22 12:02:00,
2013-02-22 07:07:00,34.3,26.9,30.39,NE,45,0.0,-999.0,74,0.00,,,0.00,Wunderground v.1.15,2013-02-22 12:07:00,
2013-02-22 07:12:00,34.3,26.9,30.39,NE,45,0.0,-999.0,74,0.00,,,0.00,Wunderground v.1.15,2013-02-22 12:12:00,
2013-02-22 07:17:00,34.2,27.1,30.39,N/A,-737280,0.0,-999.0,75,0.00,,,0.00,Wunderground v.1.15,2013-02-22 12:17:00,
2013-02-22 07:22:00,34.2,27.1,30.39,N/A,-737280,0.0,-999.0,75,0.00,,,0.00,Wunderground v.1.15,2013-02-22 12:22:00,
2013-02-22 07:27:00,34.1,27.0,30.39,N/A,-737280,0.0,-999.0,75,0.00,,,0.00,Wunderground v.1.15,2013-02-22 12:27:00,
2013-02-22 07:32:00,34.1,27.0,30.39,N/A,-737280,0.0,-999.0,75,0.00,,,0.00,Wunderground v.1.15,2013-02-22 12:32:00,
2013-02-22 07:37:00,34.0,26.9,30.39,N/A,-737280,0.0,-999.0,75,0.00,,,0.00,Wunderground v.1.15,2013-02-22 12:37:00,
2013-02-22 07:42:00,34.0,26.9,30.39,N/A,-737280,0.0,-999.0,75,0.00,,,0.00,Wunderground v.1.15,2013-02-22 12:42:00,
2013-02-22 07:47:00,33.9,26.8,30.39,N/A,-737280,0.0,-999.0,75,0.00,,,0.00,Wunderground v.1.15,2013-02-22 12:47:00,
2013-02-22 07:52:00,33.9,26.8,30.39,N/A,-737280,0.0,-999.0,75,0.00,,,0.00,Wunderground v.1.15,2013-02-22 12:52:00,
2013-02-22 07:57:00,33.9,27.4,30.40,N/A,-737280,0.0,-999.0,77,0.00,,,0.00,Wunderground v.1.15,2013-02-22 12:57:00,
2013-02-22 08:02:00,33.9,27.4,30.40,N/A,-737280,0.0,-999.0,77,0.00,,,0.00,Wunderground v.1.15,2013-02-22 13:02:00,
2013-02-22 08:07:00,34.0,27.5,30.40,WNW,293,0.0,-999.0,77,0.00,,,0.00,Wunderground v.1.15,2013-02-22 13:07:00,
2013-02-22 08:12:00,34.0,27.5,30.40,WNW,293,0.0,-999.0,77,0.00,,,0.00,Wunderground v.1.15,2013-02-22 13:12:00,
2013-02-22 08:17:00,33.8,27.4,30.39,N/A,-737280,0.0,-999.0,77,0.00,,,0.00,Wunderground v.1.15,2013-02-22 13:17:00,
2013-02-22 08:22:00,33.8,27.4,30.39,N/A,-737280,0.0,-999.0,77,0.00,,,0.00,Wunderground v.1.15,2013-02-22 13:22:00,
2013-02-22 08:27:00,33.7,27.6,30.39,WNW,293,0.0,-999.0,78,0.00,,,0.00,Wunderground v.1.15,2013-02-22 13:27:00,
2013-02-22 08:32:00,33.7,27.6,30.39,WNW,293,0.0,-999.0,78,0.00,,,0.00,Wunderground v.1.15,2013-02-22 13:32:00,
2013-02-22 08:37:00,33.7,27.6,30.39,N/A,-737280,0.0,-999.0,78,0.00,,,0.00,Wunderground v.1.15,2013-02-22 13:37:00,
2013-02-22 08:42:00,33.7,27.6,30.39,N/A,-737280,0.0,-999.0,78,0.00,,,0.00,Wunderground v.1.15,2013-02-22 13:42:00,
2013-02-22 08:47:00,33.8,28.0,30.40,WNW,293,0.0,-999.0,79,0.00,,,0.00,Wunderground v.1.15,2013-02-22 13:47:00,
2013-02-22 08:52:00,33.8,28.0,30.40,WNW,293,0.0,-999.0,79,0.00,,,0.00,Wunderground v.1.15,2013-02-22 13:52:00,
2013-02-22 08:57:00,33.8,27.7,30.40,NNW,338,0.0,-999.0,78,0.00,,,0.00,Wunderground v.1.15,2013-02-22 13:57:00,
2013-02-22 09:02:00,33.8,27.7,30.40,NNW,338,0.0,-999.0,78,0.00,,,0.00,Wunderground v.1.15,2013-02-22 14:02:00,
2013-02-22 09:07:00,33.7,27.6,30.39,NNW,338,0.0,-999.0,78,0.00,,,0.00,Wunderground v.1.15,2013-02-22 14:07:00,
2013-02-22 09:12:00,33.7,27.6,30.39,NNW,338,0.0,-999.0,78,0.00,,,0.00,Wunderground v.1.15,2013-02-22 14:12:00,
2013-02-22 09:17:00,33.6,27.5,30.39,NNW,338,0.0,-999.0,78,0.00,,,0.00,Wunderground v.1.15,2013-02-22 14:17:00,
2013-02-22 09:22:00,33.6,27.5,30.39,NNW,338,0.0,-999.0,78,0.00,,,0.00,Wunderground v.1.15,2013-02-22 14:22:00,
2013-02-22 09:27:00,33.5,27.4,30.39,N/A,-737280,0.0,-999.0,78,0.00,,,0.00,Wunderground v.1.15,2013-02-22 14:27:00,
2013-02-22 09:32:00,33.5,27.4,30.39,N/A,-737280,0.0,-999.0,78,0.00,,,0.00,Wunderground v.1.15,2013-02-22 14:32:00,
2013-02-22 09:37:00,33.5,27.4,30.40,N/A,-737280,0.0,-999.0,78,0.00,,,0.00,Wunderground v.1.15,2013-02-22 14:37:00,
2013-02-22 09:42:00,33.5,27.4,30.40,N/A,-737280,0.0,-999.0,78,0.00,,,0.00,Wunderground v.1.15,2013-02-22 14:42:00,
2013-02-22 09:47:00,33.5,27.4,30.39,N/A,-737280,0.0,-999.0,78,0.00,,,0.00,Wunderground v.1.15,2013-02-22 14:47:00,
2013-02-22 09:52:00,33.5,27.4,30.39,N/A,-737280,0.0,-999.0,78,0.00,,,0.00,Wunderground v.1.15,2013-02-22 14:52:00,
2013-02-22 09:57:00,33.4,27.3,30.38,N/A,-737280,0.0,-999.0,78,0.00,,,0.00,Wunderground v.1.15,2013-02-22 14:57:00,
2013-02-22 10:02:00,33.4,27.3,30.38,N/A,-737280,0.0,-999.0,78,0.00,,,0.00,Wunderground v.1.15,2013-02-22 15:02:00,
2013-02-22 10:07:00,33.3,27.2,30.38,N/A,-737280,0.0,-999.0,78,0.00,,,0.00,Wunderground v.1.15,2013-02-22 15:07:00,
2013-02-22 10:12:00,33.3,27.2,30.38,N/A,-737280,0.0,-999.0,78,0.00,,,0.00,Wunderground v.1.15,2013-02-22 15:12:00,
2013-02-22 10:17:00,33.2,27.1,30.38,N/A,-737280,0.0,-999.0,78,0.00,,,0.00,Wunderground v.1.15,2013-02-22 15:17:00,
2013-02-22 10:22:00,33.2,27.1,30.38,N/A,-737280,0.0,-999.0,78,0.00,,,0.00,Wunderground v.1.15,2013-02-22 15:22:00,
2013-02-22 10:27:00,33.2,27.1,30.37,N/A,-737280,0.0,-999.0,78,0.00,,,0.00,Wunderground v.1.15,2013-02-22 15:27:00,
2013-02-22 10:32:00,33.2,27.1,30.37,N/A,-737280,0.0,-999.0,78,0.00,,,0.00,Wunderground v.1.15,2013-02-22 15:32:00,
2013-02-22 10:37:00,33.2,27.1,30.38,N/A,-737280,0.0,-999.0,78,0.00,,,0.00,Wunderground v.1.15,2013-02-22 15:37:00,
2013-02-22 10:42:00,33.2,27.1,30.38,N/A,-737280,0.0,-999.0,78,0.00,,,0.00,Wunderground v.1.15,2013-02-22 15:42:00,
2013-02-22 10:47:00,33.2,27.4,30.38,N/A,-737280,0.0,-999.0,79,0.00,,,0.00,Wunderground v.1.15,2013-02-22 15:47:00,
2013-02-22 10:52:00,33.2,27.4,30.38,N/A,-737280,0.0,-999.0,79,0.00,,,0.00,Wunderground v.1.15,2013-02-22 15:52:00,
2013-02-22 10:57:00,33.3,27.5,30.39,N/A,-737280,0.0,-999.0,79,0.00,,,0.00,Wunderground v.1.15,2013-02-22 15:57:00,
2013-02-22 11:02:00,33.3,27.5,30.39,N/A,-737280,0.0,-999.0,79,0.00,,,0.00,Wunderground v.1.15,2013-02-22 16:02:00,
2013-02-22 11:07:00,33.3,27.5,30.38,N/A,-737280,0.0,-999.0,79,0.00,,,0.00,Wunderground v.1.15,2013-02-22 16:07:00,
2013-02-22 11:12:00,33.3,27.5,30.38,N/A,-737280,0.0,-999.0,79,0.00,,,0.00,Wunderground v.1.15,2013-02-22 16:12:00,
2013-02-22 11:17:00,33.2,27.4,30.38,N/A,-737280,0.0,-999.0,79,0.00,,,0.00,Wunderground v.1.15,2013-02-22 16:17:00,
2013-02-22 11:22:00,33.2,27.4,30.38,N/A,-737280,0.0,-999.0,79,0.00,,,0.00,Wunderground v.1.15,2013-02-22 16:22:00,
2013-02-22 11:27:00,33.1,27.3,30.37,N/A,-737280,0.0,-999.0,79,0.00,,,0.00,Wunderground v.1.15,2013-02-22 16:27:00,
2013-02-22 11:32:00,33.1,27.3,30.37,N/A,-737280,0.0,-999.0,79,0.00,,,0.00,Wunderground v.1.15,2013-02-22 16:32:00,
2013-02-22 11:37:00,33.1,27.3,30.37,N/A,-737280,0.0,-999.0,79,0.00,,,0.00,Wunderground v.1.15,2013-02-22 16:37:00,
2013-02-22 11:47:00,33.1,27.3,30.37,N/A,-737280,0.0,-999.0,79,0.00,,,0.00,Wunderground v.1.15,2013-02-22 16:47:00,
2013-02-22 11:52:00,33.1,27.3,30.37,N/A,-737280,0.0,-999.0,79,0.00,,,0.00,Wunderground v.1.15,2013-02-22 16:52:00,
2013-02-22 11:57:00,33.0,27.2,30.36,N/A,-737280,0.0,-999.0,79,0.00,,,0.00,Wunderground v.1.15,2013-02-22 16:57:00,
2013-02-22 12:02:00,33.0,27.2,30.36,N/A,-737280,0.0,-999.0,79,0.00,,,0.00,Wunderground v.1.15,2013-02-22 17:02:00,
2013-02-22 12:07:00,32.9,27.1,30.35,N/A,-737280,0.0,-999.0,79,0.00,,,0.00,Wunderground v.1.15,2013-02-22 17:07:00,
2013-02-22 12:12:00,32.9,27.1,30.35,N/A,-737280,0.0,-999.0,79,0.00,,,0.00,Wunderground v.1.15,2013-02-22 17:12:00,
2013-02-22 12:17:00,32.9,27.1,30.34,N/A,-737280,0.0,-999.0,79,0.00,,,0.00,Wunderground v.1.15,2013-02-22 17:17:00,
2013-02-22 12:22:00,32.9,27.1,30.34,N/A,-737280,0.0,-999.0,79,0.00,,,0.00,Wunderground v.1.15,2013-02-22 17:22:00,
2013-02-22 12:27:00,32.9,27.1,30.34,N/A,-737280,0.0,-999.0,79,0.00,,,0.00,Wunderground v.1.15,2013-02-22 17:27:00,
2013-02-22 12:32:00,32.9,27.1,30.34,N/A,-737280,0.0,-999.0,79,0.00,,,0.00,Wunderground v.1.15,2013-02-22 17:32:00,
2013-02-22 12:37:00,32.9,27.4,30.35,N/A,-737280,0.0,-999.0,80,0.00,,,0.00,Wunderground v.1.15,2013-02-22 17:37:00,
2013-02-22 12:42:00,32.9,27.4,30.35,N/A,-737280,0.0,-999.0,80,0.00,,,0.00,Wunderground v.1.15,2013-02-22 17:42:00,
2013-02-22 12:47:00,32.8,27.3,30.34,N/A,-737280,0.0,-999.0,80,0.00,,,0.00,Wunderground v.1.15,2013-02-22 17:47:00,
2013-02-22 12:52:00,32.8,27.3,30.34,N/A,-737280,0.0,-999.0,80,0.00,,,0.00,Wunderground v.1.15,2013-02-22 17:52:00,
2013-02-22 12:57:00,32.9,27.4,30.34,N/A,-737280,0.0,-999.0,80,0.00,,,0.00,Wunderground v.1.15,2013-02-22 17:57:00,
2013-02-22 13:02:00,32.9,27.4,30.34,N/A,-737280,0.0,-999.0,80,0.00,,,0.00,Wunderground v.1.15,2013-02-22 18:02:00,
2013-02-22 13:07:00,32.8,27.3,30.34,N/A,-737280,0.0,-999.0,80,0.00,,,0.00,Wunderground v.1.15,2013-02-22 18:07:00,
2013-02-22 13:12:00,32.8,27.3,30.34,N/A,-737280,0.0,-999.0,80,0.00,,,0.00,Wunderground v.1.15,2013-02-22 18:12:00,
2013-02-22 13:17:00,32.7,27.2,30.34,N/A,-737280,0.0,-999.0,80,0.00,,,0.00,Wunderground v.1.15,2013-02-22 18:17:00,
2013-02-22 13:22:00,32.7,27.2,30.34,N/A,-737280,0.0,-999.0,80,0.00,,,0.00,Wunderground v.1.15,2013-02-22 18:22:00,
2013-02-22 13:27:00,32.7,27.2,30.33,N/A,-737280,0.0,-999.0,80,0.00,,,0.00,Wunderground v.1.15,2013-02-22 18:27:00,
2013-02-22 13:32:00,32.7,27.2,30.33,N/A,-737280,0.0,-999.0,80,0.00,,,0.00,Wunderground v.1.15,2013-02-22 18:32:00,
2013-02-22 13:37:00,32.6,27.4,30.33,N/A,-737280,0.0,-999.0,81,0.00,,,0.00,Wunderground v.1.15,2013-02-22 18:37:00,
2013-02-22 13:42:00,32.6,27.4,30.33,N/A,-737280,0.0,-999.0,81,0.00,,,0.00,Wunderground v.1.15,2013-02-22 18:42:00,
2013-02-22 13:47:00,32.6,27.4,30.33,N/A,-737280,0.0,-999.0,81,0.00,,,0.00,Wunderground v.1.15,2013-02-22 18:47:00,
2013-02-22 13:52:00,32.6,27.4,30.33,N/A,-737280,0.0,-999.0,81,0.00,,,0.00,Wunderground v.1.15,2013-02-22 18:52:00,
2013-02-22 13:57:00,32.6,27.4,30.33,N/A,-737280,0.0,-999.0,81,0.00,,,0.00,Wunderground v.1.15,2013-02-22 18:57:00,
2013-02-22 14:02:00,32.6,27.4,30.33,N/A,-737280,0.0,-999.0,81,0.00,,,0.00,Wunderground v.1.15,2013-02-22 19:02:00,
2013-02-22 14:07:00,32.7,27.5,30.34,N/A,-737280,0.0,-999.0,81,0.00,,,0.00,Wunderground v.1.15,2013-02-22 19:07:00,
2013-02-22 14:12:00,32.7,27.5,30.34,N/A,-737280,0.0,-999.0,81,0.00,,,0.00,Wunderground v.1.15,2013-02-22 19:12:00,
2013-02-22 14:17:00,32.7,27.8,30.34,N/A,-737280,0.0,-999.0,82,0.00,,,0.00,Wunderground v.1.15,2013-02-22 19:17:00,
2013-02-22 14:22:00,32.7,27.8,30.34,N/A,-737280,0.0,-999.0,82,0.00,,,0.00,Wunderground v.1.15,2013-02-22 19:22:00,
2013-02-22 14:27:00,32.6,27.7,30.33,N/A,-737280,0.0,-999.0,82,0.00,,,0.00,Wunderground v.1.15,2013-02-22 19:27:00,
2013-02-22 14:32:00,32.6,27.7,30.33,N/A,-737280,0.0,-999.0,82,0.00,,,0.00,Wunderground v.1.15,2013-02-22 19:32:00,
2013-02-22 14:37:00,32.6,27.7,30.32,N/A,-737280,0.0,-999.0,82,0.00,,,0.00,Wunderground v.1.15,2013-02-22 19:37:00,
2013-02-22 14:42:00,32.6,27.7,30.32,N/A,-737280,0.0,-999.0,82,0.00,,,0.00,Wunderground v.1.15,2013-02-22 19:42:00,
2013-02-22 14:47:00,32.8,28.2,30.32,N/A,-737280,0.0,-999.0,83,0.00,,,0.00,Wunderground v.1.15,2013-02-22 19:47:00,
2013-02-22 14:52:00,32.8,28.2,30.32,N/A,-737280,0.0,-999.0,83,0.00,,,0.00,Wunderground v.1.15,2013-02-22 19:52:00,
2013-02-22 14:57:00,32.9,28.3,30.31,N/A,-737280,0.0,-999.0,83,0.00,,,0.00,Wunderground v.1.15,2013-02-22 19:57:00,
2013-02-22 15:02:00,32.9,28.3,30.31,N/A,-737280,0.0,-999.0,83,0.00,,,0.00,Wunderground v.1.15,2013-02-22 20:02:00,
2013-02-22 15:07:00,33.0,28.7,30.30,N/A,-737280,0.0,-999.0,84,0.00,,,0.00,Wunderground v.1.15,2013-02-22 20:07:00,
2013-02-22 15:12:00,33.0,28.7,30.30,N/A,-737280,0.0,-999.0,84,0.00,,,0.00,Wunderground v.1.15,2013-02-22 20:12:00,
2013-02-22 15:17:00,33.1,29.1,30.30,N/A,-737280,0.0,-999.0,85,0.00,,,0.00,Wunderground v.1.15,2013-02-22 20:17:00,
2013-02-22 15:22:00,33.1,29.1,30.30,N/A,-737280,0.0,-999.0,85,0.00,,,0.00,Wunderground v.1.15,2013-02-22 20:22:00,
2013-02-22 15:27:00,33.2,29.2,30.30,ENE,68,0.0,-999.0,85,0.00,,,0.00,Wunderground v.1.15,2013-02-22 20:27:00,
2013-02-22 15:32:00,33.2,29.2,30.30,ENE,68,0.0,-999.0,85,0.00,,,0.00,Wunderground v.1.15,2013-02-22 20:32:00,
2013-02-22 15:37:00,33.5,29.2,30.30,East,90,0.0,-999.0,84,0.00,,,0.00,Wunderground v.1.15,2013-02-22 20:37:00,
2013-02-22 15:42:00,33.5,29.2,30.30,East,90,0.0,-999.0,84,0.00,,,0.00,Wunderground v.1.15,2013-02-22 20:42:00,
2013-02-22 15:47:00,-999.9,-99.9,30.29,N/A,-737280,0.0,-999.0,-32768,0.00,,,0.00,Wunderground v.1.15,2013-02-22 20:47:00,
2013-02-22 15:52:00,-999.9,-99.9,30.29,N/A,-737280,0.0,-999.0,-32768,0.00,,,0.00,Wunderground v.1.15,2013-02-22 20:52:00,
2013-02-22 15:57:00,-999.9,-99.9,30.28,N/A,-737280,0.0,-999.0,-32768,0.00,,,0.00,Wunderground v.1.15,2013-02-22 20:57:00,
2013-02-22 16:02:00,-999.9,-99.9,30.28,N/A,-737280,0.0,-999.0,-32768,0.00,,,0.00,Wunderground v.1.15,2013-02-22 21:02:00,
2013-02-22 16:07:00,-999.9,-99.9,30.29,N/A,-737280,0.0,-999.0,-32768,0.00,,,0.00,Wunderground v.1.15,2013-02-22 21:07:00,
2013-02-22 16:12:00,-999.9,-99.9,30.29,N/A,-737280,0.0,-999.0,-32768,0.00,,,0.00,Wunderground v.1.15,2013-02-22 21:12:00,
2013-02-22 16:17:00,-999.9,-99.9,30.28,N/A,-737280,0.0,-999.0,-32768,0.00,,,0.00,Wunderground v.1.15,2013-02-22 21:17:00,
2013-02-22 16:22:00,-999.9,-99.9,30.28,N/A,-737280,0.0,-999.0,-32768,0.00,,,0.00,Wunderground v.1.15,2013-02-22 21:22:00,
2013-02-22 16:27:00,-999.9,-99.9,30.29,N/A,-737280,0.0,-999.0,-32768,0.00,,,0.00,Wunderground v.1.15,2013-02-22 21:27:00,
2013-02-22 16:32:00,-999.9,-99.9,30.29,N/A,-737280,0.0,-999.0,-32768,0.00,,,0.00,Wunderground v.1.15,2013-02-22 21:32:00,
2013-02-22 16:37:00,-999.9,-99.9,30.29,N/A,-737280,0.0,-999.0,-32768,0.00,,,0.00,Wunderground v.1.15,2013-02-22 21:37:00,
2013-02-22 16:42:00,-999.9,-99.9,30.29,N/A,-737280,0.0,-999.0,-32768,0.00,,,0.00,Wunderground v.1.15,2013-02-22 21:42:00,
2013-02-22 16:47:00,-999.9,-99.9,30.29,N/A,-737280,0.0,-999.0,-32768,0.00,,,0.00,Wunderground v.1.15,2013-02-22 21:47:00,
2013-02-22 16:52:00,-999.9,-99.9,30.29,N/A,-737280,0.0,-999.0,-32768,0.00,,,0.00,Wunderground v.1.15,2013-02-22 21:52:00,
2013-02-22 16:57:00,-999.9,-99.9,30.29,N/A,-737280,0.0,-999.0,-32768,0.00,,,0.00,Wunderground v.1.15,2013-02-22 21:57:00,
2013-02-22 17:02:00,-999.9,-99.9,30.29,N/A,-737280,0.0,-999.0,-32768,0.00,,,0.00,Wunderground v.1.15,2013-02-22 22:02:00,
2013-02-22 17:07:00,-999.9,-99.9,30.28,N/A,-737280,0.0,-999.0,-32768,0.00,,,0.00,Wunderground v.1.15,2013-02-22 22:07:00,
2013-02-22 17:12:00,-999.9,-99.9,30.28,N/A,-737280,0.0,-999.0,-32768,0.00,,,0.00,Wunderground v.1.15,2013-02-22 22:12:00,
2013-02-22 17:17:00,-999.9,-99.9,30.28,N/A,-737280,0.0,-999.0,-32768,0.00,,,0.00,Wunderground v.1.15,2013-02-22 22:17:00,
2013-02-22 17:22:00,-999.9,-99.9,30.28,N/A,-737280,0.0,-999.0,-32768,0.00,,,0.00,Wunderground v.1.15,2013-02-22 22:22:00,
2013-02-22 17:27:00,-999.9,-99.9,30.28,N/A,-737280,0.0,-999.0,-32768,0.00,,,0.00,Wunderground v.1.15,2013-02-22 22:27:00,
2013-02-22 17:32:00,-999.9,-99.9,30.28,N/A,-737280,0.0,-999.0,-32768,0.00,,,0.00,Wunderground v.1.15,2013-02-22 22:32:00,
2013-02-22 17:37:00,-999.9,-99.9,30.28,N/A,-737280,0.0,-999.0,-32768,0.00,,,0.00,Wunderground v.1.15,2013-02-22 22:37:00,
2013-02-22 17:42:00,-999.9,-99.9,30.28,N/A,-737280,0.0,-999.0,-32768,0.00,,,0.00,Wunderground v.1.15,2013-02-22 22:42:00,
2013-02-22 17:47:00,-999.9,-99.9,30.27,N/A,-737280,0.0,-999.0,-32768,0.00,,,0.00,Wunderground v.1.15,2013-02-22 22:47:00,
2013-02-22 17:52:00,-999.9,-99.9,30.27,N/A,-737280,0.0,-999.0,-32768,0.00,,,0.00,Wunderground v.1.15,2013-02-22 22:52:00,
2013-02-22 17:57:00,-999.9,-99.9,30.27,N/A,-737280,0.0,-999.0,-32768,0.00,,,0.00,Wunderground v.1.15,2013-02-22 22:57:00,
2013-02-22 18:02:00,-999.9,-99.9,30.27,N/A,-737280,0.0,-999.0,-32768,0.00,,,0.00,Wunderground v.1.15,2013-02-22 23:02:00,
2013-02-22 18:07:00,-999.9,-99.9,30.28,N/A,-737280,0.0,-999.0,-32768,0.00,,,0.00,Wunderground v.1.15,2013-02-22 23:07:00,
2013-02-22 18:12:00,-999.9,-99.9,30.28,N/A,-737280,0.0,-999.0,-32768,0.00,,,0.00,Wunderground v.1.15,2013-02-22 23:12:00,
2013-02-22 18:17:00,-999.9,-99.9,30.26,N/A,-737280,0.0,-999.0,-32768,0.00,,,0.00,Wunderground v.1.15,2013-02-22 23:17:00,
2013-02-22 18:22:00,-999.9,-99.9,30.26,N/A,-737280,0.0,-999.0,-32768,0.00,,,0.00,Wunderground v.1.15,2013-02-22 23:22:00,
2013-02-22 18:27:00,-999.9,-99.9,30.26,N/A,-737280,0.0,-999.0,-32768,0.00,,,0.00,Wunderground v.1.15,2013-02-22 23:27:00,
2013-02-22 18:32:00,-999.9,-99.9,30.26,N/A,-737280,0.0,-999.0,-32768,0.00,,,0.00,Wunderground v.1.15,2013-02-22 23:32:00,
2013-02-22 18:37:00,-999.9,-99.9,30.25,N/A,-737280,0.0,-999.0,-32768,0.00,,,0.00,Wunderground v.1.15,2013-02-22 23:37:00,
2013-02-22 18:42:00,-999.9,-99.9,30.25,N/A,-737280,0.0,-999.0,-32768,0.00,,,0.00,Wunderground v.1.15,2013-02-22 23:42:00,
2013-02-22 18:47:00,-999.9,-99.9,30.26,N/A,-737280,0.0,-999.0,-32768,0.00,,,0.00,Wunderground v.1.15,2013-02-22 23:47:00,
2013-02-22 18:52:00,-999.9,-99.9,30.26,N/A,-737280,0.0,-999.0,-32768,0.00,,,0.00,Wunderground v.1.15,2013-02-22 23:52:00,
2013-02-22 18:57:00,-999.9,-99.9,30.27,N/A,-737280,0.0,-999.0,-32768,0.00,,,0.00,Wunderground v.1.15,2013-02-22 23:57:00,
2013-02-22 19:02:00,-999.9,-99.9,30.27,N/A,-737280,0.0,-999.0,-32768,0.00,,,0.00,Wunderground v.1.15,2013-02-23 00:02:00,
2013-02-22 19:07:00,-999.9,-99.9,30.27,N/A,-737280,0.0,-999.0,-32768,0.00,,,0.00,Wunderground v.1.15,2013-02-23 00:07:00,
2013-02-22 19:12:00,-999.9,-99.9,30.27,N/A,-737280,0.0,-999.0,-32768,0.00,,,0.00,Wunderground v.1.15,2013-02-23 00:12:00,
2013-02-22 19:14:00,34.2,26.8,30.39,NE,34,0.0,4.0,74,0.00,,,0.00,Wunderground v.1.15,2013-02-23 00:14:00,
2013-02-22 19:17:00,-999.9,-99.9,30.27,N/A,-737280,0.0,-999.0,-32768,0.00,,,0.00,Wunderground v.1.15,2013-02-23 00:17:00,
2013-02-22 19:22:00,-999.9,-99.9,30.27,N/A,-737280,0.0,-999.0,-32768,0.00,,,0.00,Wunderground v.1.15,2013-02-23 00:22:00,
2013-02-22 19:24:00,34.1,27.0,30.40,NE,34,0.0,4.0,75,0.00,,,0.00,Wunderground v.1.15,2013-02-23 00:24:00,
2013-02-22 19:27:00,33.8,32.0,30.28,SE,135,0.0,-999.0,93,0.00,,,0.00,Wunderground v.1.15,2013-02-23 00:27:00,
2013-02-22 19:30:00,34.1,27.0,30.39,NE,34,0.0,4.0,75,0.00,,,0.00,Wunderground v.1.15,2013-02-23 00:30:00,
2013-02-22 19:32:00,33.8,32.0,30.28,SE,135,0.0,-999.0,93,0.00,,,0.00,Wunderground v.1.15,2013-02-23 00:32:00,
2013-02-22 19:35:00,34.0,26.9,30.39,NE,34,0.0,4.0,75,0.00,,,0.00,Wunderground v.1.15,2013-02-23 00:35:00,
2013-02-22 19:37:00,34.2,32.1,30.26,ENE,68,0.0,-999.0,92,0.00,,,0.00,Wunderground v.1.15,2013-02-23 00:37:00,
2013-02-22 19:40:00,34.0,26.9,30.39,NE,34,0.0,4.0,75,0.00,,,0.00,Wunderground v.1.15,2013-02-23 00:40:00,
2013-02-22 19:42:00,34.2,32.1,30.26,ENE,68,0.0,-999.0,92,0.00,,,0.00,Wunderground v.1.15,2013-02-23 00:42:00,
2013-02-22 19:45:00,33.9,26.8,30.40,NE,34,0.0,4.0,75,0.00,,,0.00,Wunderground v.1.15,2013-02-23 00:45:00,
2013-02-22 19:47:00,34.6,32.5,30.26,East,90,0.0,-999.0,92,0.00,,,0.00,Wunderground v.1.15,2013-02-23 00:47:00,
2013-02-22 19:50:00,33.9,26.8,30.39,NE,34,0.0,4.0,75,0.00,,,0.00,Wunderground v.1.15,2013-02-23 00:50:00,
2013-02-22 19:52:00,34.6,32.5,30.26,East,90,0.0,-999.0,92,0.00,,,0.00,Wunderground v.1.15,2013-02-23 00:52:00,
2013-02-22 19:55:00,33.9,27.1,30.40,NE,34,0.0,4.0,76,0.00,,,0.00,Wunderground v.1.15,2013-02-23 00:55:00,
2013-02-22 19:57:00,34.9,32.8,30.26,East,90,1.0,-999.0,92,0.00,,,0.00,Wunderground v.1.15,2013-02-23 00:57:00,
2013-02-22 20:00:00,34.0,27.5,30.40,NNW,340,0.0,0.0,77,0.00,,,0.00,Wunderground v.1.15,2013-02-23 01:00:00,
2013-02-22 20:02:00,34.9,32.8,30.26,East,90,1.0,-999.0,92,0.00,,,0.00,Wunderground v.1.15,2013-02-23 01:02:00,
2013-02-22 20:07:00,35.2,32.8,30.27,East,90,1.0,-999.0,91,0.00,,,0.00,Wunderground v.1.15,2013-02-23 01:07:00,
2013-02-22 20:10:00,34.0,27.5,30.40,WNW,298,0.0,0.0,77,0.00,,,0.00,Wunderground v.1.15,2013-02-23 01:10:00,
2013-02-22 20:12:00,35.2,32.8,30.27,East,90,1.0,-999.0,91,0.00,,,0.00,Wunderground v.1.15,2013-02-23 01:12:00,
2013-02-22 20:17:00,35.3,32.7,30.27,East,90,1.0,-999.0,90,0.00,,,0.00,Wunderground v.1.15,2013-02-23 01:17:00,
2013-02-22 20:20:00,33.8,27.4,30.39,WNW,298,0.0,0.0,77,0.00,,,0.00,Wunderground v.1.15,2013-02-23 01:20:00,
2013-02-22 20:22:00,35.3,32.7,30.27,East,90,1.0,-999.0,90,0.00,,,0.00,Wunderground v.1.15,2013-02-23 01:22:00,
2013-02-22 20:25:00,33.7,27.6,30.39,WNW,298,0.0,0.0,78,0.00,,,0.00,Wunderground v.1.15,2013-02-23 01:25:00,
2013-02-22 20:27:00,35.2,32.6,30.27,East,90,1.0,-999.0,90,0.00,,,0.00,Wunderground v.1.15,2013-02-23 01:27:00,
2013-02-22 20:30:00,33.7,27.6,30.39,WNW,298,0.0,0.0,78,0.00,,,0.00,Wunderground v.1.15,2013-02-23 01:30:00,
2013-02-22 20:32:00,35.2,32.6,30.27,East,90,1.0,-999.0,90,0.00,,,0.00,Wunderground v.1.15,2013-02-23 01:32:00,
2013-02-22 20:37:00,35.2,32.6,30.27,ENE,68,1.0,-999.0,90,0.00,,,0.00,Wunderground v.1.15,2013-02-23 01:37:00,
2013-02-22 20:40:00,33.7,27.6,30.39,WNW,298,0.0,0.0,78,0.00,,,0.00,Wunderground v.1.15,2013-02-23 01:40:00,
2013-02-22 20:42:00,35.2,32.6,30.27,ENE,68,1.0,-999.0,90,0.00,,,0.00,Wunderground v.1.15,2013-02-23 01:42:00,
2013-02-22 20:45:00,33.7,27.6,30.40,WNW,298,0.0,0.0,78,0.00,,,0.00,Wunderground v.1.15,2013-02-23 01:45:00,
2013-02-22 20:47:00,35.3,32.4,30.27,East,90,1.0,-999.0,89,0.00,,,0.00,Wunderground v.1.15,2013-02-23 01:47:00,
2013-02-22 20:50:00,33.8,28.0,30.40,WNW,298,0.0,0.0,79,0.00,,,0.00,Wunderground v.1.15,2013-02-23 01:50:00,
2013-02-22 20:52:00,35.3,32.4,30.27,East,90,1.0,-999.0,89,0.00,,,0.00,Wunderground v.1.15,2013-02-23 01:52:00,
2013-02-22 20:55:00,33.9,27.8,30.40,WNW,298,0.0,0.0,78,0.00,,,0.00,Wunderground v.1.15,2013-02-23 01:55:00,
2013-02-22 20:57:00,35.4,32.5,30.26,ESE,113,1.0,-999.0,89,0.00,,,0.00,Wunderground v.1.15,2013-02-23 01:57:00,
2013-02-22 21:00:00,33.8,27.7,30.40,NNW,339,0.0,1.0,78,0.00,,,0.00,Wunderground v.1.15,2013-02-23 02:00:00,
2013-02-22 21:02:00,35.4,32.5,30.26,ESE,113,1.0,-999.0,89,0.00,,,0.00,Wunderground v.1.15,2013-02-23 02:02:00,
2013-02-22 21:05:00,33.7,27.6,30.39,NNW,338,0.0,1.0,78,0.00,,,0.00,Wunderground v.1.15,2013-02-23 02:05:00,
2013-02-22 21:07:00,35.5,32.6,30.26,ESE,113,2.0,-999.0,89,0.00,,,0.00,Wunderground v.1.15,2013-02-23 02:07:00,
2013-02-22 21:12:00,35.5,32.6,30.26,ESE,113,2.0,-999.0,89,0.00,,,0.00,Wunderground v.1.15,2013-02-23 02:12:00,
2013-02-22 21:15:00,33.6,27.2,30.39,NNW,342,0.0,1.0,77,0.00,,,0.00,Wunderground v.1.15,2013-02-23 02:15:00,
2013-02-22 21:17:00,35.7,32.5,30.25,ESE,113,2.0,-999.0,88,0.00,,,0.00,Wunderground v.1.15,2013-02-23 02:17:00,
2013-02-22 21:20:00,33.6,27.2,30.38,NNW,341,0.0,1.0,77,0.00,,,0.00,Wunderground v.1.15,2013-02-23 02:20:00,
2013-02-22 21:22:00,35.7,32.5,30.25,ESE,113,2.0,-999.0,88,0.00,,,0.00,Wunderground v.1.15,2013-02-23 02:22:00,
2013-02-22 21:25:00,33.5,27.4,30.39,NNW,342,0.0,1.0,78,0.00,,,0.00,Wunderground v.1.15,2013-02-23 02:25:00,
2013-02-22 21:27:00,36.0,32.5,30.25,ENE,68,2.0,-999.0,87,0.00,,,0.00,Wunderground v.1.15,2013-02-23 02:27:00,
2013-02-22 21:30:00,33.5,27.4,30.40,NNW,342,0.0,1.0,78,0.00,,,0.00,Wunderground v.1.15,2013-02-23 02:30:00,
2013-02-22 21:32:00,36.0,32.5,30.25,ENE,68,2.0,-999.0,87,0.00,,,0.00,Wunderground v.1.15,2013-02-23 02:32:00,
2013-02-22 21:37:00,36.3,32.5,30.24,East,90,2.0,-999.0,86,0.00,,,0.00,Wunderground v.1.15,2013-02-23 02:37:00,
2013-02-22 21:40:00,33.5,27.4,30.40,NNW,342,0.0,1.0,78,0.00,,,0.00,Wunderground v.1.15,2013-02-23 02:40:00,
2013-02-22 21:42:00,36.3,32.5,30.24,East,90,2.0,-999.0,86,0.00,,,0.00,Wunderground v.1.15,2013-02-23 02:42:00,
2013-02-22 21:45:00,33.6,27.5,30.40,NNW,328,0.0,1.0,78,0.00,,,0.00,Wunderground v.1.15,2013-02-23 02:45:00,
2013-02-22 21:47:00,36.3,32.5,30.25,ESE,113,3.0,-999.0,86,0.00,,,0.00,Wunderground v.1.15,2013-02-23 02:47:00,
2013-02-22 21:50:00,33.5,27.4,30.39,NNW,329,0.0,1.0,78,0.00,,,0.00,Wunderground v.1.15,2013-02-23 02:50:00,
2013-02-22 21:52:00,36.3,32.5,30.25,ESE,113,3.0,-999.0,86,0.00,,,0.00,Wunderground v.1.15,2013-02-23 02:52:00,
2013-02-22 21:55:00,33.5,27.4,30.39,NNW,328,0.0,1.0,78,0.00,,,0.00,Wunderground v.1.15,2013-02-23 02:55:00,
2013-02-22 21:57:00,36.4,32.6,30.25,East,90,2.0,-999.0,86,0.00,,,0.00,Wunderground v.1.15,2013-02-23 02:57:00,
2013-02-22 22:00:00,33.4,27.3,30.38,NNW,329,0.0,0.0,78,0.00,,,0.00,Wunderground v.1.15,2013-02-23 03:00:00,
2013-02-22 22:02:00,36.4,32.6,30.25,East,90,2.0,-999.0,86,0.00,,,0.00,Wunderground v.1.15,2013-02-23 03:02:00,
2013-02-22 22:05:00,33.3,27.2,30.38,NNW,329,0.0,0.0,78,0.00,,,0.00,Wunderground v.1.15,2013-02-23 03:05:00,
2013-02-22 22:07:00,36.3,32.5,30.25,ENE,68,2.0,-999.0,86,0.00,,,0.00,Wunderground v.1.15,2013-02-23 03:07:00,
2013-02-22 22:10:00,33.3,27.2,30.38,NNW,329,0.0,0.0,78,0.00,,,0.00,Wunderground v.1.15,2013-02-23 03:10:00,
2013-02-22 22:12:00,36.3,32.5,30.25,ENE,68,2.0,-999.0,86,0.00,,,0.00,Wunderground v.1.15,2013-02-23 03:12:00,
2013-02-22 22:17:00,36.2,32.4,30.25,East,90,2.0,-999.0,86,0.00,,,0.00,Wunderground v.1.15,2013-02-23 03:17:00,
2013-02-22 22:22:00,36.2,32.4,30.25,East,90,2.0,-999.0,86,0.00,,,0.00,Wunderground v.1.15,2013-02-23 03:22:00,
2013-02-22 22:27:00,36.2,32.4,30.24,ESE,113,2.0,-999.0,86,0.00,,,0.00,Wunderground v.1.15,2013-02-23 03:27:00,
2013-02-22 22:32:00,36.2,32.4,30.24,ESE,113,2.0,-999.0,86,0.00,,,0.00,Wunderground v.1.15,2013-02-23 03:32:00,
2013-02-22 22:37:00,36.4,32.6,30.23,East,90,1.0,-999.0,86,0.00,,,0.00,Wunderground v.1.15,2013-02-23 03:37:00,
2013-02-22 22:42:00,36.4,32.6,30.23,East,90,1.0,-999.0,86,0.00,,,0.00,Wunderground v.1.15,2013-02-23 03:42:00,
2013-02-22 22:47:00,36.6,32.5,30.23,East,90,2.0,-999.0,85,0.00,,,0.00,Wunderground v.1.15,2013-02-23 03:47:00,
2013-02-22 22:52:00,36.6,32.5,30.23,East,90,2.0,-999.0,85,0.00,,,0.00,Wunderground v.1.15,2013-02-23 03:52:00,
2013-02-22 22:57:00,36.6,32.5,30.22,East,90,2.0,-999.0,85,0.00,,,0.00,Wunderground v.1.15,2013-02-23 03:57:00,
2013-02-22 23:02:00,36.6,32.5,30.22,East,90,2.0,-999.0,85,0.00,,,0.00,Wunderground v.1.15,2013-02-23 04:02:00,
2013-02-22 23:07:00,36.8,32.7,30.21,East,90,3.0,-999.0,85,0.00,,,0.00,Wunderground v.1.15,2013-02-23 04:07:00,
2013-02-22 23:12:00,36.8,32.7,30.21,East,90,3.0,-999.0,85,0.00,,,0.00,Wunderground v.1.15,2013-02-23 04:12:00,
2013-02-22 23:17:00,37.1,32.7,30.21,ESE,113,3.0,-999.0,84,0.00,,,0.00,Wunderground v.1.15,2013-02-23 04:17:00,
2013-02-22 23:22:00,37.1,32.7,30.21,ESE,113,3.0,-999.0,84,0.00,,,0.00,Wunderground v.1.15,2013-02-23 04:22:00,
2013-02-22 23:27:00,37.3,32.9,30.20,East,90,2.0,-999.0,84,0.00,,,0.00,Wunderground v.1.15,2013-02-23 04:27:00,
2013-02-22 23:32:00,37.3,32.9,30.20,East,90,2.0,-999.0,84,0.00,,,0.00,Wunderground v.1.15,2013-02-23 04:32:00,
2013-02-22 23:37:00,37.6,33.2,30.19,ENE,68,3.0,-999.0,84,0.00,,,0.00,Wunderground v.1.15,2013-02-23 04:37:00,
2013-02-22 23:42:00,37.6,33.2,30.19,ENE,68,3.0,-999.0,84,0.00,,,0.00,Wunderground v.1.15,2013-02-23 04:42:00,
2013-02-22 23:47:00,37.9,33.2,30.19,East,90,3.0,-999.0,83,0.00,,,0.00,Wunderground v.1.15,2013-02-23 04:47:00,
2013-02-22 23:52:00,37.9,33.2,30.19,East,90,3.0,-999.0,83,0.00,,,0.00,Wunderground v.1.15,2013-02-23 04:52:00,
2013-02-22 23:57:00,38.1,33.1,30.19,East,90,3.0,-999.0,82,0.00,,,0.00,Wunderground v.1.15,2013-02-23 04:57:00,